ADDS METAR Data INFO
IDs: Format: Raw Decoded Include TAF

Data at: 1127 UTC 23 Jan 2018

METAR for:KFGX (Flemingsburg Arpt, KY, US)
Text:KFGX 231115Z AUTO 25018G23KT 10SM OVC060 06/M01 A2974 RMK AO2 T00611011
Temperature: 6.1°C ( 43°F)
Dewpoint: -1.1°C ( 30°F) [RH = 60%]
Pressure (altimeter):29.74 inches Hg (1007.2 mb)
Winds:from the WSW (250 degrees) at 21 MPH (18 knots; 9.3 m/s) gusting to 26 MPH (23 knots; 11.8 m/s)
Visibility:10 or more sm (16+ km)
Ceiling:6000 feet AGL
Clouds: overcast cloud deck at 6000 feet AGL
QC Flag:automated observation with no human augmentation